createdAt,value
2019-05-06T00:02:06.523Z,1.67
2019-05-06T00:04:34.103Z,1.40
2019-05-06T00:07:00.587Z,1.85
2019-05-06T00:09:27.024Z,1.95
2019-05-06T00:11:54.374Z,1.92
2019-05-06T00:14:23.423Z,1.57
2019-05-06T00:16:49.470Z,1.80
2019-05-06T00:19:15.929Z,1.85
2019-05-06T00:21:44.215Z,1.75
2019-05-06T00:24:10.545Z,1.57
2019-05-06T00:26:38.809Z,2.15
2019-05-06T00:29:07.277Z,1.98
2019-05-06T00:31:34.560Z,1.70
2019-05-06T00:34:01.072Z,1.80
2019-05-06T00:36:27.426Z,1.42
2019-05-06T00:38:55.969Z,1.70
2019-05-06T00:41:26.948Z,1.80
2019-05-06T00:43:54.665Z,2.00
2019-05-06T00:46:21.144Z,1.70
2019-05-06T00:48:47.589Z,1.70
2019-05-06T00:51:14.045Z,1.62
2019-05-06T00:53:43.712Z,1.77
2019-05-06T00:56:09.948Z,1.75
2019-05-06T00:58:36.297Z,1.70
2019-05-06T01:01:04.637Z,1.85
2019-05-06T01:03:30.997Z,1.57
2019-05-06T01:05:57.439Z,1.72
2019-05-06T01:08:24.146Z,2.02
2019-05-06T01:10:50.637Z,1.60
2019-05-06T01:13:18.885Z,1.50
2019-05-06T01:15:45.266Z,1.70
2019-05-06T01:18:13.656Z,1.90
2019-05-06T01:20:39.982Z,1.47
2019-05-06T01:23:06.423Z,1.80
2019-05-06T01:25:34.622Z,1.95
2019-05-06T01:28:01.029Z,2.05
2019-05-06T01:30:27.660Z,1.42
2019-05-06T01:32:54.485Z,1.70
2019-05-06T01:35:20.753Z,1.80
2019-05-06T01:37:48.997Z,2.00
2019-05-06T01:40:17.341Z,1.50
2019-05-06T01:42:54.326Z,1.80
2019-05-06T01:45:20.678Z,1.75
2019-05-06T01:47:47.108Z,1.70
2019-05-06T01:50:14.065Z,2.02
2019-05-06T01:52:40.333Z,1.95
2019-05-06T01:55:07.481Z,2.00
2019-05-06T01:57:33.940Z,1.70
2019-05-06T02:00:00.289Z,1.80
2019-05-06T02:02:26.739Z,1.82
2019-05-06T02:04:54.117Z,1.82
2019-05-06T02:07:20.727Z,1.77
2019-05-06T02:09:47.157Z,2.40
2019-05-06T02:12:13.889Z,1.82
2019-05-06T02:14:40.309Z,2.10
2019-05-06T02:17:06.689Z,1.70
2019-05-06T02:19:34.695Z,1.67
2019-05-06T02:22:04.328Z,2.20
2019-05-06T02:24:44.569Z,1.82
2019-05-06T02:27:10.795Z,1.95
2019-05-06T02:29:39.150Z,1.87
2019-05-06T02:32:25.601Z,1.92
2019-05-06T02:34:54.344Z,1.90
2019-05-06T02:37:27.642Z,2.00
2019-05-06T02:39:53.874Z,2.00
2019-05-06T02:42:20.318Z,2.20
2019-05-06T02:44:46.873Z,1.90
2019-05-06T02:47:23.044Z,1.90
2019-05-06T02:50:00.037Z,2.05
2019-05-06T02:52:26.374Z,1.85
2019-05-06T02:54:53.657Z,2.00
2019-05-06T02:57:20.154Z,1.85
2019-05-06T02:59:46.509Z,2.10
2019-05-06T03:02:14.000Z,1.92
2019-05-06T03:04:43.472Z,1.98
2019-05-06T03:07:08.737Z,1.98
2019-05-06T03:09:36.029Z,1.90
2019-05-06T03:12:03.563Z,1.72
2019-05-06T03:14:30.382Z,2.10
2019-05-06T03:16:56.835Z,2.05
2019-05-06T03:19:24.430Z,1.87
2019-05-06T03:22:07.394Z,2.20
2019-05-06T03:24:38.350Z,1.95
2019-05-06T03:27:05.027Z,1.95
2019-05-06T03:29:33.357Z,2.00
2019-05-06T03:31:59.585Z,2.08
2019-05-06T03:34:49.804Z,2.15
2019-05-06T03:36:56.189Z,2.30
2019-05-06T03:39:23.226Z,1.90
2019-05-06T03:41:49.629Z,2.20
2019-05-06T03:44:16.751Z,1.82
2019-05-06T03:47:05.290Z,1.90
2019-05-06T03:49:34.278Z,2.20
2019-05-06T03:52:02.730Z,2.00
2019-05-06T03:54:29.149Z,2.30
2019-05-06T03:56:55.785Z,1.83
2019-05-06T03:59:23.276Z,2.37
2019-05-06T04:01:49.891Z,2.00
2019-05-06T04:04:16.111Z,2.20
2019-05-06T04:06:43.654Z,2.35
2019-05-06T04:09:13.047Z,2.17
2019-05-06T04:11:38.649Z,2.40
2019-05-06T04:14:05.298Z,2.00
2019-05-06T04:16:36.539Z,2.62
2019-05-06T04:19:07.646Z,2.30
2019-05-06T04:21:38.518Z,2.10
2019-05-06T04:24:07.558Z,2.20
2019-05-06T04:26:35.901Z,2.37
2019-05-06T04:29:03.885Z,2.08
2019-05-06T04:31:33.400Z,2.47
2019-05-06T04:34:09.854Z,2.15
2019-05-06T04:36:28.270Z,2.27
2019-05-06T04:38:54.708Z,2.20
2019-05-06T04:41:26.161Z,2.60
2019-05-06T04:43:49.434Z,2.30
2019-05-06T04:46:17.006Z,2.50
2019-05-06T04:48:43.524Z,2.35
2019-05-06T04:51:10.179Z,2.33
2019-05-06T04:53:36.615Z,2.50
2019-05-06T04:56:03.993Z,2.37
2019-05-06T04:58:33.282Z,2.27
2019-05-06T05:00:59.454Z,2.52
2019-05-06T05:03:25.900Z,2.62
2019-05-06T05:05:53.108Z,2.12
2019-05-06T05:08:22.347Z,2.70
2019-05-06T05:10:53.569Z,2.62
2019-05-06T05:13:33.765Z,2.58
2019-05-06T05:16:07.916Z,2.60
2019-05-06T05:18:36.270Z,2.75
2019-05-06T05:21:02.713Z,2.22
2019-05-06T05:23:29.279Z,2.90
2019-05-06T05:25:55.729Z,2.52
2019-05-06T05:28:22.400Z,2.72
2019-05-06T05:30:48.998Z,2.50
2019-05-06T05:33:15.477Z,2.80
2019-05-06T05:35:43.271Z,2.67
2019-05-06T05:38:09.892Z,2.30
2019-05-06T05:40:36.629Z,2.35
2019-05-06T05:43:13.585Z,2.08
2019-05-06T05:45:42.334Z,2.10
2019-05-06T05:48:13.073Z,2.40
2019-05-06T05:50:42.043Z,2.83
2019-05-06T05:53:08.560Z,2.30
2019-05-06T05:55:35.006Z,2.17
2019-05-06T05:58:03.144Z,2.60
2019-05-06T06:00:32.421Z,1.87
2019-05-06T06:02:59.013Z,2.08
2019-05-06T06:05:25.726Z,2.62
2019-05-06T06:07:52.993Z,2.00
2019-05-06T06:10:30.125Z,2.20
2019-05-06T06:12:56.593Z,2.50
2019-05-06T06:15:27.952Z,1.95
2019-05-06T06:18:12.652Z,2.33
2019-05-06T06:20:55.891Z,2.12
2019-05-06T06:23:24.441Z,1.87
2019-05-06T06:25:52.882Z,2.47
2019-05-06T06:28:19.401Z,2.00
2019-05-06T06:30:56.749Z,2.02
2019-05-06T06:33:23.085Z,1.90
2019-05-06T06:35:51.969Z,2.50
2019-05-06T06:38:20.369Z,1.98
2019-05-06T06:40:46.726Z,2.20
2019-05-06T06:43:15.164Z,1.98
2019-05-06T06:45:42.164Z,1.90
2019-05-06T06:48:08.554Z,2.22
2019-05-06T06:50:35.153Z,1.72
2019-05-06T06:53:03.094Z,2.12
2019-05-06T06:55:31.739Z,2.22
2019-05-06T06:58:05.591Z,2.40
2019-05-06T07:00:34.746Z,2.30
2019-05-06T07:03:03.303Z,2.27
2019-05-06T07:05:42.196Z,2.42
2019-05-06T07:08:08.548Z,2.25
2019-05-06T07:10:36.802Z,2.35
2019-05-06T07:13:03.448Z,2.50
2019-05-06T07:15:29.881Z,2.25
2019-05-06T07:17:56.333Z,2.30
2019-05-06T07:20:27.221Z,2.20
2019-05-06T07:22:53.482Z,1.90
2019-05-06T07:25:19.813Z,2.05
2019-05-06T07:27:46.272Z,2.05
2019-05-06T07:30:12.708Z,2.05
2019-05-06T07:32:38.960Z,1.87
2019-05-06T07:35:06.303Z,1.75
2019-05-06T07:37:32.813Z,2.00
2019-05-06T07:39:59.104Z,2.08
2019-05-06T07:42:39.402Z,1.92
2019-05-06T07:45:12.399Z,1.85
2019-05-06T07:47:42.594Z,1.50
2019-05-06T07:50:09.334Z,1.47
2019-05-06T07:52:35.779Z,1.72
2019-05-06T07:55:02.685Z,1.60
2019-05-06T07:57:29.176Z,1.70
2019-05-06T07:59:55.525Z,1.50
2019-05-06T08:02:22.868Z,1.65
2019-05-06T08:04:49.436Z,2.45
2019-05-06T08:07:15.786Z,1.70
2019-05-06T08:09:42.509Z,2.05
2019-05-06T08:12:08.952Z,2.00
2019-05-06T08:14:43.069Z,2.02
2019-05-06T08:17:12.700Z,1.70
2019-05-06T08:19:39.164Z,2.30
2019-05-06T08:22:07.522Z,2.05
2019-05-06T08:24:33.864Z,1.80
2019-05-06T08:27:00.210Z,1.80
2019-05-06T08:29:26.553Z,1.60
2019-05-06T08:31:52.897Z,1.77
2019-05-06T08:34:19.341Z,1.80
2019-05-06T08:36:47.485Z,1.92
2019-05-06T08:39:13.929Z,1.47
2019-05-06T08:41:42.209Z,1.60
2019-05-06T08:44:08.528Z,1.65
2019-05-06T08:46:34.884Z,1.50
2019-05-06T08:49:03.037Z,1.30
2019-05-06T08:51:34.451Z,1.27
2019-05-06T08:54:03.257Z,1.22
2019-05-06T08:56:31.956Z,1.22
2019-05-06T08:58:57.952Z,1.32
2019-05-06T09:01:32.498Z,1.20
2019-05-06T09:04:08.427Z,1.40
2019-05-06T09:06:30.627Z,1.17
2019-05-06T09:08:56.909Z,0.90
2019-05-06T09:11:25.700Z,1.10
2019-05-06T09:13:52.235Z,1.12
2019-05-06T09:16:18.457Z,1.20
2019-05-06T09:18:44.897Z,1.80
2019-05-06T09:21:12.314Z,1.30
2019-05-06T09:23:38.593Z,1.50
2019-05-06T09:26:06.945Z,1.47
2019-05-06T09:28:42.722Z,1.80
2019-05-06T09:31:23.145Z,1.30
2019-05-06T09:33:57.225Z,1.42
2019-05-06T09:36:23.607Z,1.25
2019-05-06T09:38:50.045Z,1.17
2019-05-06T09:41:16.500Z,1.60
2019-05-06T09:43:43.457Z,1.35
2019-05-06T09:46:12.743Z,1.42
2019-05-06T09:48:42.875Z,1.55
2019-05-06T09:51:09.493Z,1.40
2019-05-06T09:53:37.738Z,1.32
2019-05-06T09:56:17.881Z,1.45
2019-05-06T09:58:44.524Z,1.42
2019-05-06T10:01:13.164Z,1.60
2019-05-06T10:03:39.317Z,1.32
2019-05-06T10:06:05.666Z,1.70
2019-05-06T10:08:32.450Z,2.00
2019-05-06T10:10:59.914Z,1.30
2019-05-06T10:13:26.520Z,1.40
2019-05-06T10:15:52.969Z,1.60
2019-05-06T10:18:19.413Z,1.30
2019-05-06T10:20:45.960Z,1.30
2019-05-06T10:23:12.929Z,1.27
2019-05-06T10:25:39.869Z,1.35
2019-05-06T10:28:08.944Z,1.30
2019-05-06T10:30:35.269Z,1.62
2019-05-06T10:33:06.240Z,1.10
2019-05-06T10:35:32.666Z,0.75
2019-05-06T10:38:12.368Z,1.27
2019-05-06T10:41:00.055Z,1.25
2019-05-06T10:43:32.580Z,1.10
2019-05-06T10:46:01.096Z,1.30
2019-05-06T10:48:27.104Z,1.17
2019-05-06T10:51:03.375Z,1.20
2019-05-06T10:53:29.369Z,1.40
2019-05-06T10:55:57.814Z,1.27
2019-05-06T10:58:24.250Z,1.30
2019-05-06T11:00:52.928Z,1.27
2019-05-06T11:03:22.637Z,1.00
2019-05-06T11:05:49.627Z,1.35
2019-05-06T11:08:16.266Z,1.47
2019-05-06T11:10:45.416Z,1.30
2019-05-06T11:13:12.766Z,1.50
2019-05-06T11:15:39.118Z,1.40
2019-05-06T11:18:05.574Z,1.67
2019-05-06T11:20:33.492Z,1.72
2019-05-06T11:23:02.003Z,1.37
2019-05-06T11:25:28.254Z,1.27
2019-05-06T11:27:54.886Z,1.50
2019-05-06T11:30:26.334Z,1.20
2019-05-06T11:33:04.471Z,1.90
2019-05-06T11:35:36.169Z,1.60
2019-05-06T11:38:13.277Z,1.80
2019-05-06T11:40:41.972Z,1.92
2019-05-06T11:43:07.641Z,2.40
2019-05-06T11:45:34.002Z,2.20
2019-05-06T11:48:00.245Z,2.42
2019-05-06T11:50:26.689Z,2.47
2019-05-06T11:52:55.910Z,2.08
2019-05-06T11:55:28.854Z,1.98
2019-05-06T11:57:49.506Z,2.25
2019-05-06T12:00:18.505Z,2.33
2019-05-06T12:02:48.393Z,2.47
2019-05-06T12:05:13.203Z,2.05
2019-05-06T12:07:39.668Z,1.95
2019-05-06T12:10:06.950Z,1.87
2019-05-06T12:12:33.185Z,2.27
2019-05-06T12:14:59.789Z,2.80
2019-05-06T12:17:26.021Z,2.47
2019-05-06T12:19:52.882Z,2.72
2019-05-06T12:22:21.987Z,2.60
2019-05-06T12:24:47.647Z,2.40
2019-05-06T12:27:15.837Z,2.50
2019-05-06T12:29:42.890Z,2.70
2019-05-06T12:32:12.901Z,2.22
2019-05-06T12:34:39.125Z,2.00
2019-05-06T12:37:07.457Z,2.37
2019-05-06T12:39:33.985Z,2.00
2019-05-06T12:42:02.240Z,2.00
2019-05-06T12:44:29.582Z,2.60
2019-05-06T12:46:59.827Z,2.60
2019-05-06T12:49:25.882Z,2.50
2019-05-06T12:51:53.780Z,2.27
2019-05-06T12:54:22.386Z,2.30
2019-05-06T12:56:51.785Z,2.25
2019-05-06T12:59:18.200Z,2.35
2019-05-06T13:01:45.756Z,2.02
2019-05-06T13:04:13.531Z,2.00
2019-05-06T13:06:45.831Z,1.95
2019-05-06T13:09:08.319Z,1.77
2019-05-06T13:11:34.549Z,2.40
2019-05-06T13:14:03.934Z,2.33
2019-05-06T13:16:29.246Z,2.08
2019-05-06T13:18:55.490Z,2.00
2019-05-06T13:21:22.405Z,1.98
2019-05-06T13:23:50.661Z,2.10
2019-05-06T13:26:16.918Z,2.42
2019-05-06T13:28:45.257Z,2.17
2019-05-06T13:31:20.490Z,2.08
2019-05-06T13:33:47.526Z,2.15
2019-05-06T13:36:14.100Z,2.37
2019-05-06T13:38:42.523Z,2.40
2019-05-06T13:41:08.717Z,2.05
2019-05-06T13:43:36.957Z,1.90
2019-05-06T13:46:23.361Z,1.90
2019-05-06T13:49:02.574Z,2.15
2019-05-06T13:51:32.798Z,1.98
2019-05-06T13:53:59.229Z,2.42
2019-05-06T13:56:25.685Z,2.47
2019-05-06T13:58:52.611Z,1.75
2019-05-06T14:01:22.948Z,2.20
2019-05-06T14:03:49.086Z,1.90
2019-05-06T14:06:15.533Z,1.80
2019-05-06T14:08:42.361Z,2.17
2019-05-06T14:11:08.697Z,2.10
2019-05-06T14:13:34.953Z,2.10
2019-05-06T14:16:03.777Z,1.98
2019-05-06T14:18:29.434Z,2.00
2019-05-06T14:20:55.785Z,2.20
2019-05-06T14:23:22.315Z,2.02
2019-05-06T14:26:04.203Z,2.17
2019-05-06T14:28:32.568Z,1.98
2019-05-06T14:31:03.528Z,1.95
2019-05-06T14:33:32.158Z,1.98
2019-05-06T14:35:58.217Z,1.92
2019-05-06T14:38:24.817Z,1.95
2019-05-06T14:41:07.925Z,1.72
2019-05-06T14:43:33.189Z,2.10
2019-05-06T14:45:59.632Z,1.87
2019-05-06T14:48:25.985Z,1.80
2019-05-06T14:50:56.161Z,2.08
2019-05-06T14:53:23.633Z,1.72
2019-05-06T14:55:50.609Z,2.10
2019-05-06T14:58:16.862Z,1.80
2019-05-06T15:00:43.113Z,2.05
2019-05-06T15:03:09.961Z,1.72
2019-05-06T15:05:36.518Z,1.42
2019-05-06T15:08:02.958Z,1.65
2019-05-06T15:10:29.330Z,1.52
2019-05-06T15:12:55.665Z,1.40
2019-05-06T15:15:22.897Z,1.27
2019-05-06T15:17:49.365Z,1.30
2019-05-06T15:20:15.814Z,1.37
2019-05-06T15:22:42.264Z,1.50
2019-05-06T15:25:08.834Z,1.45
2019-05-06T15:27:35.189Z,1.55
2019-05-06T15:30:03.837Z,1.45
2019-05-06T15:32:34.989Z,1.80
2019-05-06T15:35:06.092Z,1.72
2019-05-06T15:37:49.226Z,1.82
2019-05-06T15:40:30.158Z,2.55
2019-05-06T15:42:44.401Z,2.10
2019-05-06T15:45:12.603Z,2.20
2019-05-06T15:47:39.305Z,2.02
2019-05-06T15:50:06.052Z,1.72
2019-05-06T15:52:32.853Z,1.77
2019-05-06T15:54:59.209Z,1.70
2019-05-06T15:57:25.570Z,1.62
2019-05-06T15:59:52.947Z,1.60
2019-05-06T16:02:19.697Z,1.60
2019-05-06T16:04:46.057Z,1.90
2019-05-06T16:07:12.715Z,2.05
2019-05-06T16:09:39.193Z,1.70
2019-05-06T16:12:06.051Z,1.77
2019-05-06T16:14:34.932Z,1.85
2019-05-06T16:17:00.449Z,2.00
2019-05-06T16:19:26.710Z,1.87
2019-05-06T16:21:53.161Z,1.60
2019-05-06T16:24:21.394Z,1.82
2019-05-06T16:26:47.640Z,1.72
2019-05-06T16:29:13.989Z,1.80
2019-05-06T16:31:42.166Z,1.37
2019-05-06T16:34:08.489Z,1.70
2019-05-06T16:36:35.115Z,1.62
2019-05-06T16:39:07.063Z,1.62
2019-05-06T16:41:32.909Z,1.45
2019-05-06T16:43:59.421Z,1.75
2019-05-06T16:46:25.851Z,1.55
2019-05-06T16:48:52.569Z,1.22
2019-05-06T16:51:19.147Z,1.50
2019-05-06T16:53:45.492Z,1.40
2019-05-06T16:56:22.769Z,1.60
2019-05-06T16:58:52.505Z,1.30
2019-05-06T17:01:19.040Z,2.10
2019-05-06T17:03:53.144Z,1.72
2019-05-06T17:06:24.012Z,1.60
2019-05-06T17:08:52.693Z,1.82
2019-05-06T17:11:28.109Z,1.70
2019-05-06T17:13:47.448Z,1.90
2019-05-06T17:16:14.315Z,1.95
2019-05-06T17:18:41.887Z,2.22
2019-05-06T17:21:08.299Z,1.82
2019-05-06T17:23:34.646Z,2.30
2019-05-06T17:26:01.274Z,2.30
2019-05-06T17:28:35.149Z,1.82
2019-05-06T17:31:03.524Z,1.62
2019-05-06T17:33:34.674Z,1.87
2019-05-06T17:36:03.051Z,1.90
2019-05-06T17:38:32.111Z,1.65
2019-05-06T17:40:59.137Z,1.75
2019-05-06T17:43:25.405Z,1.60
2019-05-06T17:46:01.912Z,1.85
2019-05-06T17:48:36.325Z,1.98
2019-05-06T17:51:10.278Z,1.90
2019-05-06T17:53:39.738Z,2.00
2019-05-06T17:56:06.237Z,1.90
2019-05-06T17:58:33.246Z,1.87
2019-05-06T18:00:59.833Z,1.37
2019-05-06T18:03:26.181Z,1.50
2019-05-06T18:05:52.797Z,1.62
2019-05-06T18:08:19.266Z,1.80
2019-05-06T18:10:45.602Z,1.47
2019-05-06T18:13:12.711Z,1.77
2019-05-06T18:15:39.130Z,1.50
2019-05-06T18:18:05.366Z,1.67
2019-05-06T18:20:33.579Z,1.77
2019-05-06T18:23:01.961Z,1.60
2019-05-06T18:25:27.993Z,1.67
2019-05-06T18:27:55.330Z,1.55
2019-05-06T18:30:28.264Z,1.70
2019-05-06T18:32:51.990Z,1.57
2019-05-06T18:35:18.300Z,1.57
2019-05-06T18:37:45.001Z,1.77
2019-05-06T18:40:12.054Z,1.80
2019-05-06T18:42:38.750Z,1.80
2019-05-06T18:45:05.301Z,1.70
2019-05-06T18:47:33.067Z,2.20
2019-05-06T18:49:59.593Z,1.85
2019-05-06T18:52:25.948Z,1.70
2019-05-06T18:54:52.526Z,1.37
2019-05-06T18:57:19.018Z,1.72
2019-05-06T18:59:45.345Z,1.95
2019-05-06T19:02:13.113Z,1.85
2019-05-06T19:04:53.710Z,1.77
2019-05-06T19:07:22.050Z,1.60
2019-05-06T19:09:53.146Z,1.60
2019-05-06T19:12:30.229Z,1.90
2019-05-06T19:14:47.909Z,1.60
2019-05-06T19:17:14.373Z,1.70
2019-05-06T19:19:42.656Z,1.52
2019-05-06T19:22:09.198Z,1.70
2019-05-06T19:24:35.658Z,1.75
2019-05-06T19:27:02.231Z,1.45
2019-05-06T19:29:28.561Z,1.60
2019-05-06T19:31:54.997Z,1.62
2019-05-06T19:34:23.663Z,1.57
2019-05-06T19:36:49.661Z,1.50
2019-05-06T19:39:15.918Z,1.60
2019-05-06T19:41:42.473Z,1.45
2019-05-06T19:44:08.811Z,1.87
2019-05-06T19:46:35.086Z,1.70
2019-05-06T19:49:02.009Z,1.67
2019-05-06T19:51:28.473Z,1.42
2019-05-06T19:53:54.921Z,1.77
2019-05-06T19:56:23.259Z,1.67
2019-05-06T19:58:49.469Z,1.30
2019-05-06T20:01:15.915Z,1.57
2019-05-06T20:03:42.464Z,1.50
2019-05-06T20:06:10.612Z,1.60
2019-05-06T20:08:38.858Z,1.27
2019-05-06T20:11:07.337Z,1.50
2019-05-06T20:13:33.663Z,1.80
2019-05-06T20:16:00.109Z,1.67
2019-05-06T20:18:26.573Z,1.87
2019-05-06T20:20:52.960Z,1.62
2019-05-06T20:23:19.278Z,1.32
2019-05-06T20:25:45.729Z,1.52
2019-05-06T20:28:13.133Z,1.60
2019-05-06T20:30:39.637Z,1.40
2019-05-06T20:33:06.242Z,1.60
2019-05-06T20:35:32.737Z,1.30
2019-05-06T20:37:59.185Z,1.40
2019-05-06T20:40:25.800Z,1.50
2019-05-06T20:42:52.178Z,1.47
2019-05-06T20:45:18.627Z,1.60
2019-05-06T20:47:45.112Z,1.57
2019-05-06T20:50:13.252Z,1.20
2019-05-06T20:52:39.773Z,1.50
2019-05-06T20:55:12.462Z,1.30
2019-05-06T20:57:34.844Z,1.20
2019-05-06T21:00:03.513Z,1.52
2019-05-06T21:02:29.942Z,1.40
2019-05-06T21:04:56.521Z,1.30
2019-05-06T21:07:23.163Z,1.22
2019-05-06T21:09:49.733Z,1.07
2019-05-06T21:12:16.056Z,1.62
2019-05-06T21:14:42.309Z,1.50
2019-05-06T21:17:08.756Z,1.82
2019-05-06T21:19:35.118Z,1.22
2019-05-06T21:22:02.313Z,1.30
2019-05-06T21:24:28.981Z,1.30
2019-05-06T21:26:55.319Z,1.40
2019-05-06T21:29:23.233Z,1.42
2019-05-06T21:31:49.704Z,1.17
2019-05-06T21:34:16.057Z,1.22
2019-05-06T21:36:42.426Z,1.30
2019-05-06T21:39:08.886Z,1.50
2019-05-06T21:41:35.328Z,1.62
2019-05-06T21:44:02.413Z,1.30
2019-05-06T21:46:28.821Z,1.37
2019-05-06T21:48:55.063Z,1.62
2019-05-06T21:51:22.213Z,1.57
2019-05-06T21:53:48.804Z,1.25
2019-05-06T21:56:15.297Z,1.50
2019-05-06T21:58:42.831Z,1.40
2019-05-06T22:01:09.530Z,1.37
2019-05-06T22:03:35.961Z,1.55
2019-05-06T22:06:02.717Z,1.42
2019-05-06T22:08:29.205Z,1.37
2019-05-06T22:10:55.577Z,1.25
2019-05-06T22:13:21.982Z,1.32
2019-05-06T22:15:48.764Z,1.37
2019-05-06T22:18:15.009Z,1.30
2019-05-06T22:20:59.839Z,1.37
2019-05-06T22:23:28.182Z,1.32
2019-05-06T22:26:08.298Z,1.37
2019-05-06T22:28:22.769Z,1.27
2019-05-06T22:30:48.969Z,1.12
2019-05-06T22:33:15.474Z,1.55
2019-05-06T22:35:43.029Z,1.20
2019-05-06T22:38:09.358Z,1.20
2019-05-06T22:40:35.720Z,1.20
2019-05-06T22:43:03.192Z,1.40
2019-05-06T22:45:29.534Z,1.50
2019-05-06T22:47:55.876Z,1.30
2019-05-06T22:50:22.626Z,1.32
2019-05-06T22:52:48.857Z,1.37
2019-05-06T22:55:15.296Z,1.20
2019-05-06T22:57:42.373Z,1.27
2019-05-06T23:00:15.092Z,1.42
2019-05-06T23:02:43.101Z,1.32
2019-05-06T23:05:09.548Z,1.40
2019-05-06T23:07:35.796Z,1.55
2019-05-06T23:10:07.145Z,1.20
2019-05-06T23:12:33.576Z,1.35
2019-05-06T23:14:59.925Z,1.27
2019-05-06T23:17:26.366Z,1.15
2019-05-06T23:19:52.860Z,1.10
2019-05-06T23:22:19.168Z,1.20
2019-05-06T23:24:45.625Z,1.20
2019-05-06T23:27:12.689Z,1.20
2019-05-06T23:29:39.119Z,1.13
2019-05-06T23:32:05.578Z,1.40
2019-05-06T23:34:32.503Z,1.30
2019-05-06T23:37:02.959Z,1.30
2019-05-06T23:40:08.385Z,1.30
2019-05-06T23:43:12.618Z,1.22
2019-05-06T23:46:16.225Z,1.32
2019-05-06T23:49:19.505Z,1.30
2019-05-06T23:52:22.798Z,1.40
2019-05-06T23:55:26.232Z,1.20
2019-05-06T23:57:52.656Z,1.40
